메인 페이지
METAR-TAF:

METAR-TAF

공항 :

제주국제공항

제주, 대한민국

위도: 33-30N, 경도: 126-30E, 고도: 36m

현재 날씨관측

예보는 31분 전, 17:00시(UTC)에 발표되었습니다.
북북서6kt북서풍과 풍을 오가는
온도 16°C
습도 63%
기압 1018 hPa
시정 10km 이상
고도 4000ft 상공 구름 조금

METAR: RKPC 171700Z 34006KT 310V010 9999 FEW040 16/09 Q1018 NOSIG

시각: 02:31 (17:31 UTC)

예보

예보는 6 시간 31분 전, 11:00시(UTC)에 발표되었습니다.
예보 대상 시간: 17일 12시부터 18일 18시까지 (UTC)
5kt
시정 10km 이상
고도 3000ft 상공 구름 조금
전환 중
17일 18시부터 17일 19시까지 (UTC)
10kt
전환 중
18일 11시부터 18일 12시까지 (UTC)
5kt

TAF: RKPC 171100Z 1712/1818 17005KT 9999 FEW030 TN13/1720Z TX18/1805Z BECMG 1718/1719 35010KT BECMG 1811/1812 17005KT

4,000개 이상의 공항 관측 자료 및 예보 (METAR 및 TAF 보고).

지도상에서 검색 가능한 기상관측소가 노란 점과 빨간 점으로 표시되어 있습니다.

기상관측소 명을 보려면 표시 위로 마우스를 이동하세요.

날씨 관측과 예보를 보려면 클릭하세요.

지도 변경 : 확대하려면 엑스 표시가 있는 녹색 버튼, 축소하려면 빼기 표시가 있는 녹색 버튼, 다음 페이지의 지도를 보려면 녹색 화살표를 클릭하세요.


METAR-TAF: